Custer Park, Illinois
Current Conditions -  °F | °C
As of 6:55 PM on Wednesday 22 Oct 2014 (Local Time) from KJOT Reporting Station
Clear Clear  
Wind Chill:   Ceiling: Unl
Heat Index:   Visibility: 10mi
Dew Point:   Wind: 8mph
Humidity: 66%   Direction: 100°E
Pressure: 30.26"   Gusts: NA
Location:  41.3199°N, 88.0518°W
Report Text: KJOT 222355Z AUTO 10007KT 10SM CLR 08/02 A3026 RMK AO2 T00820022 10139 20077
Loading
Personal Weather Stations






























Interactive Weather Map
Tropical Storm Tracking
New forecast layout! Learn more

10-Day Weather Forecast

Advertisements
Track Severe Weather on mobile